createdAt,value
2018-04-25T00:00:23.358Z,33.27
2018-04-25T00:02:51.487Z,32.37
2018-04-25T00:05:19.702Z,32.70
2018-04-25T00:07:47.833Z,32.50
2018-04-25T00:10:15.983Z,31.80
2018-04-25T00:12:44.596Z,31.17
2018-04-25T00:15:12.744Z,33.17
2018-04-25T00:17:41.627Z,31.20
2018-04-25T00:20:09.771Z,32.73
2018-04-25T00:22:37.890Z,32.77
2018-04-25T00:25:08.021Z,34.10
2018-04-25T00:27:36.167Z,32.67
2018-04-25T00:30:04.317Z,32.20
2018-04-25T00:32:32.458Z,33.30
2018-04-25T00:35:00.609Z,32.97
2018-04-25T00:37:28.741Z,31.60
2018-04-25T00:39:56.883Z,33.50
2018-04-25T00:42:25.008Z,31.30
2018-04-25T00:44:53.919Z,33.23
2018-04-25T00:47:22.066Z,32.57
2018-04-25T00:49:50.220Z,32.77
2018-04-25T00:52:18.355Z,34.87
2018-04-25T00:54:46.498Z,32.00
2018-04-25T00:57:15.825Z,34.13
2018-04-25T00:59:43.995Z,31.37
2018-04-25T01:02:12.432Z,32.23
2018-04-25T01:04:41.711Z,31.30
2018-04-25T01:07:09.836Z,32.00
2018-04-25T01:09:39.459Z,31.90
2018-04-25T01:12:07.591Z,33.03
2018-04-25T01:14:35.739Z,32.43
2018-04-25T01:17:03.886Z,29.87
2018-04-25T01:19:32.034Z,31.40
2018-04-25T01:22:00.924Z,31.90
2018-04-25T01:24:30.348Z,32.20
2018-04-25T01:27:01.220Z,33.13
2018-04-25T01:29:29.404Z,30.93
2018-04-25T01:31:58.376Z,31.40
2018-04-25T01:34:26.519Z,31.97
2018-04-25T01:37:05.843Z,32.70
2018-04-25T01:39:41.336Z,31.73
2018-04-25T01:42:21.195Z,32.67
2018-04-25T01:44:53.831Z,31.30
2018-04-25T01:47:27.618Z,31.47
2018-04-25T01:50:21.127Z,31.00
2018-04-25T01:53:02.123Z,29.97
2018-04-25T01:55:41.975Z,30.93
2018-04-25T01:58:22.679Z,29.37
2018-04-25T02:01:02.683Z,31.07
2018-04-25T02:03:42.647Z,30.70
2018-04-25T02:06:10.799Z,31.63
2018-04-25T02:08:38.922Z,30.97
2018-04-25T02:11:07.835Z,29.53
2018-04-25T02:13:35.972Z,31.57
2018-04-25T02:16:04.134Z,29.60
2018-04-25T02:18:35.198Z,29.87
2018-04-25T02:21:04.099Z,28.90
2018-04-25T02:23:32.984Z,29.20
2018-04-25T02:26:01.903Z,29.13
2018-04-25T02:28:30.031Z,28.07
2018-04-25T02:30:58.182Z,27.20
2018-04-25T02:33:26.303Z,26.90
2018-04-25T02:35:56.440Z,27.03
2018-04-25T02:38:28.293Z,25.87
2018-04-25T02:40:56.447Z,26.67
2018-04-25T02:43:25.340Z,25.50
2018-04-25T02:45:54.254Z,25.10
2018-04-25T02:48:22.379Z,24.80
2018-04-25T02:50:50.990Z,24.37
2018-04-25T02:53:19.900Z,23.80
2018-04-25T02:55:48.079Z,23.07
2018-04-25T02:58:16.203Z,24.20
2018-04-25T03:00:44.348Z,23.03
2018-04-25T03:03:14.324Z,21.87
2018-04-25T03:05:43.244Z,21.93
2018-04-25T03:08:17.125Z,22.57
2018-04-25T03:10:47.899Z,21.73
2018-04-25T03:13:16.519Z,20.93
2018-04-25T03:15:44.675Z,20.00
2018-04-25T03:18:12.805Z,20.07
2018-04-25T03:20:42.425Z,19.30
2018-04-25T03:23:10.564Z,19.30
2018-04-25T03:25:39.457Z,17.90
2018-04-25T03:28:08.374Z,18.40
2018-04-25T03:30:36.490Z,18.10
2018-04-25T03:33:04.646Z,16.97
2018-04-25T03:35:32.793Z,16.83
2018-04-25T03:38:00.948Z,17.20
2018-04-25T03:40:29.841Z,18.13
2018-04-25T03:42:58.760Z,17.40
2018-04-25T03:45:26.875Z,17.17
2018-04-25T03:47:55.027Z,17.43
2018-04-25T03:50:23.159Z,16.70
2018-04-25T03:52:51.316Z,16.47
2018-04-25T03:58:20.619Z,15.90
2018-04-25T04:00:48.748Z,15.83
2018-04-25T04:03:19.496Z,15.50
2018-04-25T04:05:47.622Z,13.97
2018-04-25T04:08:15.779Z,15.00
2018-04-25T04:10:44.698Z,13.70
2018-04-25T04:13:13.612Z,12.17
2018-04-25T04:15:42.254Z,12.90
2018-04-25T04:18:10.404Z,14.07
2018-04-25T04:20:38.530Z,13.03
2018-04-25T04:23:07.039Z,13.80
2018-04-25T04:25:35.168Z,12.83
2018-04-25T04:28:03.463Z,12.73
2018-04-25T04:33:39.949Z,12.23
2018-04-25T04:36:10.607Z,11.30
2018-04-25T04:38:38.742Z,11.27
2018-04-25T04:41:06.880Z,11.80
2018-04-25T04:43:34.991Z,10.80
2018-04-25T04:46:03.189Z,10.80
2018-04-25T04:48:32.402Z,12.23
2018-04-25T04:51:00.525Z,10.80
2018-04-25T04:53:28.860Z,11.90
2018-04-25T04:55:56.983Z,9.73
2018-04-25T04:58:25.120Z,11.20
2018-04-25T05:00:54.644Z,12.37
2018-04-25T05:03:23.673Z,10.70
2018-04-25T05:05:54.269Z,9.73
2018-04-25T05:08:22.473Z,10.30
2018-04-25T05:10:50.545Z,10.30
2018-04-25T05:13:18.697Z,10.13
2018-04-25T05:15:46.794Z,9.27
2018-04-25T05:18:14.926Z,10.27
2018-04-25T05:20:43.035Z,10.20
2018-04-25T05:23:11.162Z,9.67
2018-04-25T05:25:39.265Z,8.80
2018-04-25T05:28:07.410Z,9.23
2018-04-25T05:30:36.273Z,8.73
2018-04-25T05:33:04.457Z,9.07
2018-04-25T05:35:32.556Z,9.90
2018-04-25T05:38:00.686Z,9.50
2018-04-25T05:40:29.705Z,8.80
2018-04-25T05:42:57.880Z,10.03
2018-04-25T05:45:26.910Z,10.10
2018-04-25T05:47:55.038Z,9.40
2018-04-25T05:50:23.478Z,9.03
2018-04-25T05:52:51.622Z,9.63
2018-04-25T05:55:19.725Z,8.60
2018-04-25T05:57:47.878Z,9.07
2018-04-25T06:00:15.995Z,8.83
2018-04-25T06:02:45.716Z,9.03
2018-04-25T06:05:16.308Z,8.40
2018-04-25T06:07:44.442Z,8.40
2018-04-25T06:10:12.556Z,8.90
2018-04-25T06:12:40.700Z,8.70
2018-04-25T06:15:08.812Z,8.17
2018-04-25T06:17:36.952Z,8.63
2018-04-25T06:20:05.064Z,8.50
2018-04-25T06:22:33.963Z,7.73
2018-04-25T06:25:03.356Z,8.27
2018-04-25T06:27:32.251Z,8.00
2018-04-25T06:30:01.144Z,7.73
2018-04-25T06:32:30.612Z,8.13
2018-04-25T06:34:59.972Z,7.33
2018-04-25T06:37:29.361Z,7.53
2018-04-25T06:39:58.728Z,7.77
2018-04-25T06:42:28.121Z,8.33
2018-04-25T06:44:58.124Z,7.50
2018-04-25T06:47:29.453Z,7.57
2018-04-25T06:49:59.730Z,6.83
2018-04-25T06:52:29.118Z,8.13
2018-04-25T06:54:58.485Z,8.07
2018-04-25T06:57:27.885Z,7.90
2018-04-25T06:59:57.256Z,7.70
2018-04-25T07:02:26.748Z,8.90
2018-04-25T07:04:56.116Z,8.70
2018-04-25T07:07:25.509Z,8.17
2018-04-25T07:09:54.866Z,10.53
2018-04-25T07:12:29.253Z,9.10
2018-04-25T07:14:58.621Z,10.27
2018-04-25T07:17:29.930Z,9.93
2018-04-25T07:19:59.308Z,10.07
2018-04-25T07:22:28.706Z,11.10
2018-04-25T07:24:58.075Z,9.87
2018-04-25T07:27:27.478Z,10.30
2018-04-25T07:29:56.853Z,10.70
2018-04-25T07:32:26.254Z,10.07
2018-04-25T07:34:56.872Z,9.80
2018-04-25T07:37:26.273Z,10.53
2018-04-25T07:39:55.645Z,11.83
2018-04-25T07:42:25.050Z,11.30
2018-04-25T07:44:54.416Z,11.23
2018-04-25T07:47:23.821Z,10.13
2018-04-25T07:49:53.828Z,10.70
2018-04-25T07:52:23.219Z,10.60
2018-04-25T07:54:53.215Z,11.00
2018-04-25T07:57:22.615Z,11.10
2018-04-25T07:59:55.672Z,10.30
2018-04-25T08:02:26.290Z,9.70
2018-04-25T08:04:56.559Z,9.90
2018-04-25T08:07:26.618Z,10.27
2018-04-25T08:09:55.992Z,10.33
2018-04-25T08:12:31.720Z,9.57
2018-04-25T08:15:07.005Z,9.43
2018-04-25T08:17:45.691Z,9.40
2018-04-25T08:20:23.413Z,8.70
2018-04-25T08:22:52.797Z,9.73
2018-04-25T08:25:22.174Z,8.80
2018-04-25T08:27:52.797Z,8.70
2018-04-25T08:30:22.162Z,8.40
2018-04-25T08:32:56.382Z,9.20
2018-04-25T08:35:25.751Z,9.03
2018-04-25T08:37:57.048Z,8.00
2018-04-25T08:40:26.421Z,5.60
2018-04-25T08:42:55.810Z,4.77
2018-04-25T08:45:25.197Z,3.60
2018-04-25T08:47:54.552Z,3.23
2018-04-25T08:50:23.941Z,3.53
2018-04-25T08:52:53.840Z,3.67
2018-04-25T08:55:23.233Z,2.67
2018-04-25T08:57:53.336Z,2.97
2018-04-25T09:00:22.734Z,2.67
2018-04-25T09:02:52.092Z,2.50
2018-04-25T09:05:21.481Z,2.70
2018-04-25T09:07:51.639Z,2.40
2018-04-25T09:10:21.028Z,2.90
2018-04-25T09:12:51.183Z,3.17
2018-04-25T09:15:20.581Z,3.23
2018-04-25T09:17:49.942Z,3.40
2018-04-25T09:20:19.420Z,3.67
2018-04-25T09:22:48.713Z,3.73
2018-04-25T09:25:18.098Z,3.60
2018-04-25T09:27:47.971Z,4.17
2018-04-25T09:30:17.358Z,4.40
2018-04-25T09:32:46.724Z,3.90
2018-04-25T09:35:16.125Z,4.50
2018-04-25T09:37:45.483Z,4.80
2018-04-25T09:40:14.861Z,4.40
2018-04-25T09:42:44.225Z,4.90
2018-04-25T09:45:13.615Z,5.03
2018-04-25T09:47:42.996Z,4.50
2018-04-25T09:50:12.380Z,4.40
2018-04-25T09:52:41.752Z,4.70
2018-04-25T09:55:11.143Z,4.90
2018-04-25T09:57:41.232Z,4.90
2018-04-25T10:00:11.819Z,4.47
2018-04-25T10:02:41.173Z,4.30
2018-04-25T10:05:10.569Z,5.10
2018-04-25T10:07:39.930Z,4.83
2018-04-25T10:10:09.834Z,6.00
2018-04-25T10:12:39.186Z,4.93
2018-04-25T10:15:08.569Z,5.10
2018-04-25T10:17:37.946Z,4.97
2018-04-25T10:20:08.205Z,5.13
2018-04-25T10:22:37.564Z,3.90
2018-04-25T10:25:06.954Z,3.50
2018-04-25T10:27:36.308Z,3.70
2018-04-25T10:30:05.701Z,3.07
2018-04-25T10:32:35.070Z,3.70
2018-04-25T10:35:04.452Z,3.37
2018-04-25T10:37:34.441Z,3.40
2018-04-25T10:40:03.831Z,3.63
2018-04-25T10:42:33.216Z,4.10
2018-04-25T10:45:03.465Z,5.03
2018-04-25T10:47:32.816Z,4.70
2018-04-25T10:50:02.216Z,5.00
2018-04-25T10:52:31.570Z,5.17
2018-04-25T10:55:03.045Z,4.60
2018-04-25T10:57:32.405Z,4.40
2018-04-25T11:00:01.902Z,5.60
2018-04-25T11:02:31.303Z,4.70
2018-04-25T11:05:00.713Z,5.00
2018-04-25T11:07:31.079Z,5.07
2018-04-25T11:10:05.164Z,4.83
2018-04-25T11:12:34.528Z,4.40
2018-04-25T11:15:05.175Z,4.93
2018-04-25T11:17:35.031Z,4.30
2018-04-25T11:20:05.064Z,4.53
2018-04-25T11:22:34.430Z,4.33
2018-04-25T11:25:03.821Z,4.23
2018-04-25T11:27:33.197Z,5.10
2018-04-25T11:30:02.717Z,4.10
2018-04-25T11:32:32.083Z,3.80
2018-04-25T11:35:01.512Z,3.77
2018-04-25T11:37:31.038Z,3.93
2018-04-25T11:40:00.421Z,3.20
2018-04-25T11:42:31.681Z,3.80
2018-04-25T11:45:01.069Z,4.17
2018-04-25T11:47:30.441Z,3.97
2018-04-25T11:49:59.825Z,3.63
2018-04-25T11:52:29.188Z,3.83
2018-04-25T11:54:58.573Z,4.30
2018-04-25T11:57:27.935Z,4.00
2018-04-25T11:59:57.325Z,4.47
2018-04-25T12:02:26.680Z,4.43
2018-04-25T12:04:56.102Z,4.50
2018-04-25T12:07:25.477Z,4.20
2018-04-25T12:09:54.866Z,4.50
2018-04-25T12:12:24.235Z,4.60
2018-04-25T12:14:53.621Z,3.83
2018-04-25T12:17:22.991Z,3.90
2018-04-25T12:19:53.056Z,3.90
2018-04-25T12:22:23.364Z,4.40
2018-04-25T12:24:53.401Z,5.00
2018-04-25T12:27:24.173Z,3.97
2018-04-25T12:29:53.557Z,4.57
2018-04-25T12:32:22.921Z,4.23
2018-04-25T12:34:52.300Z,3.63
2018-04-25T12:37:21.665Z,4.63
2018-04-25T12:39:51.053Z,4.23
2018-04-25T12:42:21.146Z,4.70
2018-04-25T12:44:50.526Z,3.60
2018-04-25T12:47:19.904Z,3.50
2018-04-25T12:49:49.361Z,3.43
2018-04-25T12:52:18.719Z,4.27
2018-04-25T12:54:48.118Z,3.53
2018-04-25T12:57:17.782Z,3.90
2018-04-25T12:59:47.387Z,3.90
2018-04-25T13:02:16.883Z,3.70
2018-04-25T13:04:47.761Z,3.63
2018-04-25T13:07:17.152Z,4.33
2018-04-25T13:09:46.539Z,3.90
2018-04-25T13:12:15.946Z,3.47
2018-04-25T13:14:45.959Z,4.17
2018-04-25T13:17:15.950Z,4.37
2018-04-25T13:19:45.328Z,4.80
2018-04-25T13:22:14.696Z,4.50
2018-04-25T13:24:44.109Z,4.10
2018-04-25T13:27:13.491Z,4.27
2018-04-25T13:29:42.852Z,4.70
2018-04-25T13:32:12.244Z,4.60
2018-04-25T13:34:41.609Z,3.80
2018-04-25T13:37:11.634Z,3.90
2018-04-25T13:39:41.630Z,4.10
2018-04-25T13:42:11.018Z,3.80
2018-04-25T13:44:41.616Z,4.10
2018-04-25T13:47:12.329Z,4.67
2018-04-25T13:49:42.446Z,3.90
2018-04-25T13:52:11.823Z,4.37
2018-04-25T13:54:42.428Z,3.80
2018-04-25T13:57:11.821Z,4.03
2018-04-25T13:59:41.179Z,3.60
2018-04-25T14:02:11.281Z,4.20
2018-04-25T14:04:40.712Z,4.00
2018-04-25T14:07:10.996Z,4.03
2018-04-25T14:09:40.357Z,3.50
2018-04-25T14:12:10.542Z,3.83
2018-04-25T14:14:39.902Z,4.20
2018-04-25T14:17:10.057Z,5.07
2018-04-25T14:19:39.424Z,3.97
2018-04-25T14:22:08.823Z,4.63
2018-04-25T14:24:40.123Z,4.20
2018-04-25T14:27:09.489Z,4.23
2018-04-25T14:29:40.164Z,4.20
2018-04-25T14:32:09.582Z,3.93
2018-04-25T14:34:38.952Z,3.53
2018-04-25T14:37:08.358Z,4.23
2018-04-25T14:39:37.721Z,4.17
2018-04-25T14:42:07.133Z,3.63
2018-04-25T14:44:37.022Z,3.97
2018-04-25T14:47:06.416Z,4.43
2018-04-25T14:49:39.413Z,3.73
2018-04-25T14:52:08.822Z,4.90
2018-04-25T14:54:38.326Z,4.37
2018-04-25T14:57:07.808Z,4.47
2018-04-25T14:59:37.183Z,4.87
2018-04-25T15:02:06.569Z,4.50
2018-04-25T15:04:35.929Z,4.20
2018-04-25T15:07:05.358Z,4.30
2018-04-25T15:09:34.715Z,4.30
2018-04-25T15:12:04.216Z,4.47
2018-04-25T15:14:34.518Z,4.20
2018-04-25T15:17:05.386Z,4.40
2018-04-25T15:19:35.375Z,4.70
2018-04-25T15:22:04.763Z,4.53
2018-04-25T15:24:34.128Z,3.97
2018-04-25T15:27:03.716Z,3.90
2018-04-25T15:29:33.080Z,4.40
2018-04-25T15:32:02.738Z,4.30
2018-04-25T15:34:32.168Z,4.90
2018-04-25T15:37:01.594Z,4.50
2018-04-25T15:39:30.968Z,4.13
2018-04-25T15:42:00.349Z,4.43
2018-04-25T15:44:29.726Z,4.10
2018-04-25T15:46:59.909Z,3.90
2018-04-25T15:49:29.276Z,4.77
2018-04-25T15:51:59.438Z,5.00
2018-04-25T15:54:28.870Z,4.50
2018-04-25T15:56:59.413Z,4.30
2018-04-25T15:59:28.781Z,4.47
2018-04-25T16:01:58.165Z,5.07
2018-04-25T16:04:28.647Z,4.53
2018-04-25T16:06:58.133Z,4.60
2018-04-25T16:09:27.506Z,4.50
2018-04-25T16:11:57.692Z,4.77
2018-04-25T16:14:27.098Z,5.30
2018-04-25T16:16:56.484Z,5.00
2018-04-25T16:19:26.688Z,4.93
2018-04-25T16:21:56.100Z,5.47
2018-04-25T16:24:26.139Z,5.77
2018-04-25T16:26:56.968Z,5.13
2018-04-25T16:29:27.678Z,4.97
2018-04-25T16:31:57.873Z,5.70
2018-04-25T16:34:28.243Z,4.70
2018-04-25T16:36:58.166Z,4.83
2018-04-25T16:39:28.073Z,5.13
2018-04-25T16:41:57.465Z,5.43
2018-04-25T16:44:27.420Z,5.00
2018-04-25T16:46:56.804Z,5.10
2018-04-25T16:49:26.169Z,4.90
2018-04-25T16:51:55.560Z,6.27
2018-04-25T16:54:24.944Z,4.63
2018-04-25T16:56:54.446Z,4.80
2018-04-25T16:59:23.826Z,5.67
2018-04-25T17:01:54.116Z,4.30
2018-04-25T17:04:23.480Z,4.87
2018-04-25T17:06:52.861Z,5.10
2018-04-25T17:09:22.212Z,4.90
2018-04-25T17:14:59.676Z,5.47
2018-04-25T17:17:29.685Z,5.10
2018-04-25T17:19:59.152Z,4.80
2018-04-25T17:22:28.557Z,5.07
2018-04-25T17:24:57.925Z,5.07
2018-04-25T17:27:28.153Z,5.13
2018-04-25T17:29:57.512Z,4.37
2018-04-25T17:32:26.968Z,5.43
2018-04-25T17:34:56.336Z,5.00
2018-04-25T17:37:25.745Z,5.73
2018-04-25T17:39:55.888Z,4.60
2018-04-25T17:42:25.273Z,5.23
2018-04-25T17:44:55.253Z,5.73
2018-04-25T17:47:24.644Z,5.00
2018-04-25T17:49:54.907Z,5.10
2018-04-25T17:52:24.300Z,4.80
2018-04-25T17:54:54.459Z,5.10
2018-04-25T17:57:23.864Z,5.60
2018-04-25T17:59:53.215Z,4.70
2018-04-25T18:02:23.245Z,4.67
2018-04-25T18:04:52.620Z,5.20
2018-04-25T18:07:22.001Z,4.97
2018-04-25T18:09:51.371Z,5.20
2018-04-25T18:12:20.766Z,4.93
2018-04-25T18:14:51.078Z,4.70
2018-04-25T18:17:22.977Z,4.77
2018-04-25T18:19:54.300Z,5.37
2018-04-25T18:22:23.776Z,4.33
2018-04-25T18:24:53.070Z,4.93
2018-04-25T18:27:22.452Z,4.67
2018-04-25T18:29:51.812Z,4.80
2018-04-25T18:32:21.200Z,5.07
2018-04-25T18:34:50.565Z,5.53
2018-04-25T18:37:20.007Z,4.90
2018-04-25T18:39:49.437Z,4.93
2018-04-25T18:45:23.876Z,5.07
2018-04-25T18:47:53.242Z,4.97
2018-04-25T18:50:22.673Z,5.37
2018-04-25T18:52:52.394Z,4.63
2018-04-25T18:55:21.765Z,4.37
2018-04-25T18:57:51.135Z,5.23
2018-04-25T19:00:20.496Z,4.63
2018-04-25T19:02:50.018Z,4.63
2018-04-25T19:05:19.368Z,4.80
2018-04-25T19:07:49.251Z,5.03
2018-04-25T19:10:18.604Z,4.17
2018-04-25T19:12:49.240Z,4.50
2018-04-25T19:15:18.684Z,4.00
2018-04-25T19:17:48.001Z,4.47
2018-04-25T19:20:17.361Z,3.97
2018-04-25T19:22:46.744Z,3.90
2018-04-25T19:25:16.109Z,4.57
2018-04-25T19:27:45.492Z,3.80
2018-04-25T19:30:14.852Z,4.03
2018-04-25T19:32:44.328Z,4.40
2018-04-25T19:35:13.674Z,5.40
2018-04-25T19:37:44.184Z,6.03
2018-04-25T19:40:13.540Z,3.97
2018-04-25T19:42:42.921Z,4.27
2018-04-25T19:45:13.123Z,4.00
2018-04-25T19:47:42.499Z,4.00
2018-04-25T19:50:11.942Z,4.40
2018-04-25T19:52:41.259Z,4.60
2018-04-25T19:55:11.480Z,4.33
2018-04-25T19:57:41.131Z,4.13
2018-04-25T20:00:10.502Z,4.20
2018-04-25T20:02:39.881Z,4.30
2018-04-25T20:05:09.251Z,4.50
2018-04-25T20:07:38.636Z,4.90
2018-04-25T20:10:08.015Z,4.37
2018-04-25T20:12:37.383Z,5.23
2018-04-25T20:15:06.744Z,4.60
2018-04-25T20:17:36.143Z,5.50
2018-04-25T20:20:05.584Z,4.43
2018-04-25T20:22:37.680Z,4.80
2018-04-25T20:25:07.044Z,4.70
2018-04-25T20:27:36.425Z,4.30
2018-04-25T20:30:06.406Z,4.60
2018-04-25T20:32:35.781Z,4.30
2018-04-25T20:35:05.146Z,4.80
2018-04-25T20:37:34.555Z,4.63
2018-04-25T20:40:04.010Z,4.30
2018-04-25T20:42:33.396Z,4.80
2018-04-25T20:45:02.831Z,5.10
2018-04-25T20:47:32.209Z,4.67
2018-04-25T20:50:01.735Z,5.50
2018-04-25T20:52:30.928Z,4.50
2018-04-25T20:54:59.021Z,5.07
2018-04-25T20:57:27.150Z,4.60
2018-04-25T20:59:56.020Z,5.00
2018-04-25T21:02:24.200Z,4.70
2018-04-25T21:04:52.248Z,5.33
2018-04-25T21:07:20.389Z,5.10
2018-04-25T21:09:48.492Z,4.83
2018-04-25T21:12:16.618Z,5.40
2018-04-25T21:14:44.725Z,4.90
2018-04-25T21:17:12.866Z,4.07
2018-04-25T21:19:41.816Z,4.83
2018-04-25T21:22:09.953Z,5.30
2018-04-25T21:24:38.082Z,5.10
2018-04-25T21:27:06.950Z,5.10
2018-04-25T21:29:35.074Z,5.03
2018-04-25T21:32:03.996Z,5.37
2018-04-25T21:34:32.627Z,5.23
2018-04-25T21:37:01.450Z,4.90
2018-04-25T21:39:29.578Z,5.20
2018-04-25T21:42:00.824Z,5.30
2018-04-25T21:44:28.943Z,5.10
2018-04-25T21:46:57.042Z,5.40
2018-04-25T21:49:25.165Z,5.50
2018-04-25T21:51:54.020Z,5.53
2018-04-25T21:54:22.137Z,5.33
2018-04-25T21:56:50.245Z,5.40
2018-04-25T21:59:18.366Z,5.07
2018-04-25T22:01:47.225Z,5.50
2018-04-25T22:04:15.357Z,5.87
2018-04-25T22:06:43.464Z,5.80
2018-04-25T22:09:11.590Z,4.97
2018-04-25T22:11:40.449Z,5.20
2018-04-25T22:14:09.872Z,6.57
2018-04-25T22:16:38.737Z,5.73
2018-04-25T22:19:06.866Z,5.50
2018-04-25T22:21:34.976Z,6.27
2018-04-25T22:24:03.291Z,5.90
2018-04-25T22:26:32.160Z,6.90
2018-04-25T22:29:02.022Z,5.70
2018-04-25T22:31:31.578Z,6.07
2018-04-25T22:33:59.708Z,5.90
2018-04-25T22:36:27.794Z,6.30
2018-04-25T22:38:55.909Z,6.70
2018-04-25T22:41:24.009Z,6.50
2018-04-25T22:43:52.884Z,6.33
2018-04-25T22:46:21.756Z,6.10
2018-04-25T22:48:50.671Z,6.37
2018-04-25T22:51:18.747Z,5.77
2018-04-25T22:53:47.632Z,5.90
2018-04-25T22:56:16.497Z,7.20
2018-04-25T22:58:44.615Z,6.90
2018-04-25T23:01:12.716Z,7.53
2018-04-25T23:03:40.841Z,7.13
2018-04-25T23:06:10.447Z,7.03
2018-04-25T23:08:39.333Z,6.50
2018-04-25T23:11:08.242Z,6.70
2018-04-25T23:13:37.123Z,6.47
2018-04-25T23:16:05.993Z,6.97
2018-04-25T23:18:34.117Z,7.07
2018-04-25T23:21:04.099Z,7.23
2018-04-25T23:23:32.237Z,7.10
2018-04-25T23:26:00.333Z,6.73
2018-04-25T23:28:28.469Z,7.00
2018-04-25T23:30:57.173Z,6.87
2018-04-25T23:33:25.296Z,8.30
2018-04-25T23:35:54.237Z,7.20
2018-04-25T23:38:22.357Z,7.20
2018-04-25T23:40:50.469Z,8.40
2018-04-25T23:43:18.601Z,8.20
2018-04-25T23:45:46.785Z,7.73
2018-04-25T23:48:14.860Z,7.97
2018-04-25T23:50:42.970Z,7.93
2018-04-25T23:53:11.093Z,7.20
2018-04-25T23:55:41.177Z,7.10
2018-04-25T23:58:09.807Z,8.00
